KLCI/LCI METAR and TAF weather

Enter ICAO airport designator
Station Type Date Time Source
KLCI METAR 2022/11/26 05:56 UTC NOAA

KLCI 260556Z AUTO 29008G18KT 230V330 10SM OVC034 03/M04 A2975 RMK AO2 PK WND 32031/0511 SLP079 T00281044 10050 20028 53024


Station Type Date Time Source
KLCI Decoded METAR 2022/11/26 05:56 UTC NOAA

Laconia, Laconia Municipal Airport, NH, United States (KLCI) 43-34N 071-25W
Nov 26, 2022 - 12:56 AM EST / 2022.11.26 0556 UTC
Wind: from the WNW (290 degrees) at 9 MPH (8 KT) gusting to 21 MPH (18 KT) (direction variable):0
Visibility: 10 mile(s):0
Sky conditions: overcast
Temperature: 37.0 F (2.8 C)
Dew Point: 24.1 F (-4.4 C)
Relative Humidity: 59%
Pressure (altimeter): 29.75 in. Hg (1007 hPa)
Pressure tendency: 0.07 inches (2.4 hPa) higher than three hours ago
ob: KLCI 260556Z AUTO 29008G18KT 230V330 10SM OVC034 03/M04 A2975 RMK AO2 PK WND 32031/0511 SLP079 T00281044 10050 20028 53024
cycle: 6

Station Type Date Time Source
KLCI TAF UTC NOAA

Error!

Example: see airport list